sensor_id;sensor_type;location;lat;lon;timestamp;P1;durP1;ratioP1;P2;durP2;ratioP2
56911;SDS011;42800;53.928;27.662;2022-12-16T00:01:55;23.60;;;9.95;;
56911;SDS011;42800;53.928;27.662;2022-12-16T00:04:23;30.42;;;11.00;;
56911;SDS011;42800;53.928;27.662;2022-12-16T00:06:49;27.70;;;10.27;;
56911;SDS011;42800;53.928;27.662;2022-12-16T00:09:16;33.53;;;11.23;;
56911;SDS011;42800;53.928;27.662;2022-12-16T00:11:42;30.50;;;12.73;;
56911;SDS011;42800;53.928;27.662;2022-12-16T00:14:08;29.30;;;12.18;;
56911;SDS011;42800;53.928;27.662;2022-12-16T00:16:34;31.38;;;11.82;;
56911;SDS011;42800;53.928;27.662;2022-12-16T00:19:01;37.58;;;11.57;;
56911;SDS011;42800;53.928;27.662;2022-12-16T00:21:28;30.08;;;11.10;;
56911;SDS011;42800;53.928;27.662;2022-12-16T00:23:54;26.85;;;10.50;;
56911;SDS011;42800;53.928;27.662;2022-12-16T00:26:21;27.35;;;10.20;;
56911;SDS011;42800;53.928;27.662;2022-12-16T00:28:47;34.45;;;12.45;;
56911;SDS011;42800;53.928;27.662;2022-12-16T00:31:14;28.17;;;10.95;;
56911;SDS011;42800;53.928;27.662;2022-12-16T00:33:40;32.53;;;12.20;;
56911;SDS011;42800;53.928;27.662;2022-12-16T00:36:07;28.80;;;10.90;;
56911;SDS011;42800;53.928;27.662;2022-12-16T00:38:34;31.73;;;11.80;;
56911;SDS011;42800;53.928;27.662;2022-12-16T00:41:00;28.77;;;10.65;;
56911;SDS011;42800;53.928;27.662;2022-12-16T00:43:27;29.30;;;11.18;;
56911;SDS011;42800;53.928;27.662;2022-12-16T00:45:53;29.55;;;11.15;;
56911;SDS011;42800;53.928;27.662;2022-12-16T00:48:20;28.25;;;10.35;;
56911;SDS011;42800;53.928;27.662;2022-12-16T00:50:48;35.35;;;12.73;;
56911;SDS011;42800;53.928;27.662;2022-12-16T00:53:15;26.05;;;10.40;;
56911;SDS011;42800;53.928;27.662;2022-12-16T00:55:42;25.05;;;9.95;;
56911;SDS011;42800;53.928;27.662;2022-12-16T00:58:08;25.88;;;10.48;;
56911;SDS011;42800;53.928;27.662;2022-12-16T01:00:35;24.92;;;10.45;;
56911;SDS011;42800;53.928;27.662;2022-12-16T01:03:01;22.67;;;10.05;;
56911;SDS011;42800;53.928;27.662;2022-12-16T01:05:27;29.30;;;10.88;;
56911;SDS011;42800;53.928;27.662;2022-12-16T01:07:54;29.38;;;10.75;;
56911;SDS011;42800;53.928;27.662;2022-12-16T01:10:21;28.67;;;11.38;;
56911;SDS011;42800;53.928;27.662;2022-12-16T01:12:50;27.65;;;11.40;;
56911;SDS011;42800;53.928;27.662;2022-12-16T01:15:17;25.02;;;10.32;;
56911;SDS011;42800;53.928;27.662;2022-12-16T01:17:44;30.15;;;11.45;;
56911;SDS011;42800;53.928;27.662;2022-12-16T01:20:11;33.15;;;11.23;;
56911;SDS011;42800;53.928;27.662;2022-12-16T01:22:38;31.63;;;11.68;;
56911;SDS011;42800;53.928;27.662;2022-12-16T01:25:05;28.00;;;11.30;;
56911;SDS011;42800;53.928;27.662;2022-12-16T01:27:32;32.90;;;12.07;;
56911;SDS011;42800;53.928;27.662;2022-12-16T01:29:59;27.73;;;11.55;;
56911;SDS011;42800;53.928;27.662;2022-12-16T01:32:25;28.80;;;11.65;;
56911;SDS011;42800;53.928;27.662;2022-12-16T01:34:52;36.47;;;12.40;;
56911;SDS011;42800;53.928;27.662;2022-12-16T01:37:19;35.75;;;12.40;;
56911;SDS011;42800;53.928;27.662;2022-12-16T01:39:46;31.50;;;11.75;;
56911;SDS011;42800;53.928;27.662;2022-12-16T01:42:13;34.78;;;12.50;;
56911;SDS011;42800;53.928;27.662;2022-12-16T01:44:41;40.90;;;13.63;;
56911;SDS011;42800;53.928;27.662;2022-12-16T01:47:13;35.58;;;12.50;;
56911;SDS011;42800;53.928;27.662;2022-12-16T01:49:42;29.88;;;12.32;;
56911;SDS011;42800;53.928;27.662;2022-12-16T01:52:12;31.55;;;12.48;;
56911;SDS011;42800;53.928;27.662;2022-12-16T01:54:43;34.35;;;12.70;;
56911;SDS011;42800;53.928;27.662;2022-12-16T01:57:16;31.65;;;12.18;;
56911;SDS011;42800;53.928;27.662;2022-12-16T01:59:46;31.10;;;10.93;;
56911;SDS011;42800;53.928;27.662;2022-12-16T02:02:17;30.48;;;11.48;;
56911;SDS011;42800;53.928;27.662;2022-12-16T02:04:43;36.55;;;12.55;;
56911;SDS011;42800;53.928;27.662;2022-12-16T02:07:24;34.78;;;12.18;;
56911;SDS011;42800;53.928;27.662;2022-12-16T02:09:50;33.58;;;12.32;;
56911;SDS011;42800;53.928;27.662;2022-12-16T02:12:18;32.42;;;12.07;;
56911;SDS011;42800;53.928;27.662;2022-12-16T02:17:46;35.60;;;13.32;;
56911;SDS011;42800;53.928;27.662;2022-12-16T02:20:34;34.53;;;14.18;;
56911;SDS011;42800;53.928;27.662;2022-12-16T02:26:34;42.17;;;15.25;;
56911;SDS011;42800;53.928;27.662;2022-12-16T02:29:27;32.33;;;12.95;;
56911;SDS011;42800;53.928;27.662;2022-12-16T02:32:18;37.88;;;13.75;;
56911;SDS011;42800;53.928;27.662;2022-12-16T02:34:52;29.83;;;12.63;;
56911;SDS011;42800;53.928;27.662;2022-12-16T02:37:28;33.85;;;13.73;;
56911;SDS011;42800;53.928;27.662;2022-12-16T02:40:02;31.23;;;12.27;;
56911;SDS011;42800;53.928;27.662;2022-12-16T02:42:33;27.17;;;10.57;;
56911;SDS011;42800;53.928;27.662;2022-12-16T02:45:06;34.72;;;11.25;;
56911;SDS011;42800;53.928;27.662;2022-12-16T02:47:38;29.40;;;11.57;;
56911;SDS011;42800;53.928;27.662;2022-12-16T02:50:05;26.90;;;11.65;;
56911;SDS011;42800;53.928;27.662;2022-12-16T02:52:42;30.13;;;12.38;;
56911;SDS011;42800;53.928;27.662;2022-12-16T02:55:09;28.33;;;11.27;;
56911;SDS011;42800;53.928;27.662;2022-12-16T03:00:25;36.35;;;13.15;;
56911;SDS011;42800;53.928;27.662;2022-12-16T03:02:59;34.15;;;12.32;;
56911;SDS011;42800;53.928;27.662;2022-12-16T03:05:30;29.75;;;12.63;;
56911;SDS011;42800;53.928;27.662;2022-12-16T03:08:00;41.22;;;13.93;;
56911;SDS011;42800;53.928;27.662;2022-12-16T03:10:32;22.42;;;9.07;;
56911;SDS011;42800;53.928;27.662;2022-12-16T03:13:01;33.85;;;11.63;;
56911;SDS011;42800;53.928;27.662;2022-12-16T03:15:31;33.92;;;12.05;;
56911;SDS011;42800;53.928;27.662;2022-12-16T03:17:59;39.28;;;13.85;;
56911;SDS011;42800;53.928;27.662;2022-12-16T03:20:26;33.53;;;12.82;;
56911;SDS011;42800;53.928;27.662;2022-12-16T03:22:58;34.83;;;13.35;;
56911;SDS011;42800;53.928;27.662;2022-12-16T03:25:28;31.05;;;12.80;;
56911;SDS011;42800;53.928;27.662;2022-12-16T03:27:58;37.92;;;14.27;;
56911;SDS011;42800;53.928;27.662;2022-12-16T03:30:31;33.97;;;13.30;;
56911;SDS011;42800;53.928;27.662;2022-12-16T03:33:01;34.05;;;13.75;;
56911;SDS011;42800;53.928;27.662;2022-12-16T03:35:33;41.28;;;15.00;;
56911;SDS011;42800;53.928;27.662;2022-12-16T03:38:03;40.63;;;14.00;;
56911;SDS011;42800;53.928;27.662;2022-12-16T03:40:31;37.28;;;14.05;;
56911;SDS011;42800;53.928;27.662;2022-12-16T03:42:59;36.42;;;14.80;;
56911;SDS011;42800;53.928;27.662;2022-12-16T03:45:28;37.25;;;14.40;;
56911;SDS011;42800;53.928;27.662;2022-12-16T03:48:01;33.92;;;13.38;;
56911;SDS011;42800;53.928;27.662;2022-12-16T03:50:28;37.05;;;14.43;;
56911;SDS011;42800;53.928;27.662;2022-12-16T03:52:57;36.38;;;14.90;;
56911;SDS011;42800;53.928;27.662;2022-12-16T03:55:23;33.35;;;13.50;;
56911;SDS011;42800;53.928;27.662;2022-12-16T03:57:50;33.80;;;14.27;;
56911;SDS011;42800;53.928;27.662;2022-12-16T04:00:16;34.95;;;12.27;;
56911;SDS011;42800;53.928;27.662;2022-12-16T04:02:43;29.85;;;13.10;;
56911;SDS011;42800;53.928;27.662;2022-12-16T04:05:10;40.28;;;16.25;;
56911;SDS011;42800;53.928;27.662;2022-12-16T04:07:36;52.13;;;19.23;;
56911;SDS011;42800;53.928;27.662;2022-12-16T04:10:03;42.25;;;17.42;;
56911;SDS011;42800;53.928;27.662;2022-12-16T04:12:30;39.55;;;16.92;;
56911;SDS011;42800;53.928;27.662;2022-12-16T04:15:17;35.05;;;15.73;;
56911;SDS011;42800;53.928;27.662;2022-12-16T04:17:57;40.17;;;16.35;;
56911;SDS011;42800;53.928;27.662;2022-12-16T04:20:52;58.55;;;20.95;;
56911;SDS011;42800;53.928;27.662;2022-12-16T04:23:39;47.67;;;19.92;;
56911;SDS011;42800;53.928;27.662;2022-12-16T04:26:29;43.80;;;17.98;;
56911;SDS011;42800;53.928;27.662;2022-12-16T04:29:16;51.60;;;20.73;;
56911;SDS011;42800;53.928;27.662;2022-12-16T04:31:42;44.67;;;18.77;;
56911;SDS011;42800;53.928;27.662;2022-12-16T04:34:08;42.10;;;16.85;;
56911;SDS011;42800;53.928;27.662;2022-12-16T04:36:50;50.53;;;18.33;;
56911;SDS011;42800;53.928;27.662;2022-12-16T04:39:35;44.97;;;18.92;;
56911;SDS011;42800;53.928;27.662;2022-12-16T04:42:19;44.58;;;17.75;;
56911;SDS011;42800;53.928;27.662;2022-12-16T04:47:48;49.25;;;20.52;;
56911;SDS011;42800;53.928;27.662;2022-12-16T04:50:33;62.65;;;22.48;;
56911;SDS011;42800;53.928;27.662;2022-12-16T04:56:02;65.90;;;24.85;;
56911;SDS011;42800;53.928;27.662;2022-12-16T05:01:27;72.35;;;29.27;;
56911;SDS011;42800;53.928;27.662;2022-12-16T05:04:11;63.45;;;24.70;;
56911;SDS011;42800;53.928;27.662;2022-12-16T05:09:40;75.07;;;26.38;;
56911;SDS011;42800;53.928;27.662;2022-12-16T05:12:33;66.93;;;26.33;;
56911;SDS011;42800;53.928;27.662;2022-12-16T05:15:17;62.03;;;21.48;;
56911;SDS011;42800;53.928;27.662;2022-12-16T05:18:06;66.43;;;26.02;;
56911;SDS011;42800;53.928;27.662;2022-12-16T05:20:51;66.70;;;24.95;;
56911;SDS011;42800;53.928;27.662;2022-12-16T05:23:32;75.05;;;25.35;;
56911;SDS011;42800;53.928;27.662;2022-12-16T05:26:17;66.00;;;22.45;;
56911;SDS011;42800;53.928;27.662;2022-12-16T05:29:01;43.25;;;17.88;;
56911;SDS011;42800;53.928;27.662;2022-12-16T05:34:30;62.55;;;19.73;;
56911;SDS011;42800;53.928;27.662;2022-12-16T05:37:14;54.05;;;17.83;;
56911;SDS011;42800;53.928;27.662;2022-12-16T05:42:44;61.72;;;22.40;;
56911;SDS011;42800;53.928;27.662;2022-12-16T05:45:31;56.70;;;21.30;;
56911;SDS011;42800;53.928;27.662;2022-12-16T05:48:15;64.32;;;23.58;;
56911;SDS011;42800;53.928;27.662;2022-12-16T05:51:00;62.40;;;23.08;;
56911;SDS011;42800;53.928;27.662;2022-12-16T05:53:40;50.08;;;19.92;;
56911;SDS011;42800;53.928;27.662;2022-12-16T05:56:25;44.03;;;15.10;;
56911;SDS011;42800;53.928;27.662;2022-12-16T06:01:54;43.60;;;14.95;;
56911;SDS011;42800;53.928;27.662;2022-12-16T06:07:22;62.53;;;22.45;;
56911;SDS011;42800;53.928;27.662;2022-12-16T06:12:51;49.70;;;18.10;;
56911;SDS011;42800;53.928;27.662;2022-12-16T06:15:51;35.80;;;14.73;;
56911;SDS011;42800;53.928;27.662;2022-12-16T06:18:35;40.25;;;14.73;;
56911;SDS011;42800;53.928;27.662;2022-12-16T06:21:19;39.53;;;15.05;;
56911;SDS011;42800;53.928;27.662;2022-12-16T06:24:04;44.95;;;16.40;;
56911;SDS011;42800;53.928;27.662;2022-12-16T06:26:49;40.97;;;14.23;;
56911;SDS011;42800;53.928;27.662;2022-12-16T06:32:18;40.95;;;15.40;;
56911;SDS011;42800;53.928;27.662;2022-12-16T06:35:02;38.75;;;14.85;;
56911;SDS011;42800;53.928;27.662;2022-12-16T06:37:47;36.63;;;14.18;;
56911;SDS011;42800;53.928;27.662;2022-12-16T06:40:31;35.72;;;14.38;;
56911;SDS011;42800;53.928;27.662;2022-12-16T06:43:15;38.15;;;15.95;;
56911;SDS011;42800;53.928;27.662;2022-12-16T06:46:00;38.20;;;16.02;;
56911;SDS011;42800;53.928;27.662;2022-12-16T06:48:45;36.20;;;14.10;;
56911;SDS011;42800;53.928;27.662;2022-12-16T06:51:29;44.45;;;17.00;;
56911;SDS011;42800;53.928;27.662;2022-12-16T06:54:28;40.25;;;14.65;;
56911;SDS011;42800;53.928;27.662;2022-12-16T06:57:12;39.00;;;14.23;;
56911;SDS011;42800;53.928;27.662;2022-12-16T06:59:57;38.53;;;14.73;;
56911;SDS011;42800;53.928;27.662;2022-12-16T07:02:41;40.80;;;15.75;;
56911;SDS011;42800;53.928;27.662;2022-12-16T07:05:37;40.65;;;15.80;;
56911;SDS011;42800;53.928;27.662;2022-12-16T07:08:22;41.08;;;16.23;;
56911;SDS011;42800;53.928;27.662;2022-12-16T07:11:06;43.40;;;14.68;;
56911;SDS011;42800;53.928;27.662;2022-12-16T07:16:35;49.95;;;15.63;;
56911;SDS011;42800;53.928;27.662;2022-12-16T07:22:04;44.40;;;15.13;;
56911;SDS011;42800;53.928;27.662;2022-12-16T07:24:48;62.20;;;16.98;;
56911;SDS011;42800;53.928;27.662;2022-12-16T07:27:32;58.42;;;16.20;;
56911;SDS011;42800;53.928;27.662;2022-12-16T07:33:01;43.20;;;16.88;;
56911;SDS011;42800;53.928;27.662;2022-12-16T07:38:30;44.28;;;14.55;;
56911;SDS011;42800;53.928;27.662;2022-12-16T07:41:14;43.33;;;14.48;;
56911;SDS011;42800;53.928;27.662;2022-12-16T07:43:59;41.47;;;13.85;;
56911;SDS011;42800;53.928;27.662;2022-12-16T07:46:43;50.28;;;16.90;;
56911;SDS011;42800;53.928;27.662;2022-12-16T07:52:11;50.00;;;17.17;;
56911;SDS011;42800;53.928;27.662;2022-12-16T07:54:56;53.63;;;15.32;;
56911;SDS011;42800;53.928;27.662;2022-12-16T07:57:41;49.40;;;16.17;;
56911;SDS011;42800;53.928;27.662;2022-12-16T08:00:25;44.90;;;17.02;;
56911;SDS011;42800;53.928;27.662;2022-12-16T08:05:54;41.13;;;15.15;;
56911;SDS011;42800;53.928;27.662;2022-12-16T08:08:38;42.67;;;14.77;;
56911;SDS011;42800;53.928;27.662;2022-12-16T08:14:08;48.33;;;15.13;;
56911;SDS011;42800;53.928;27.662;2022-12-16T08:16:52;42.33;;;13.80;;
56911;SDS011;42800;53.928;27.662;2022-12-16T08:19:37;41.08;;;13.30;;
56911;SDS011;42800;53.928;27.662;2022-12-16T08:22:21;38.67;;;15.02;;
56911;SDS011;42800;53.928;27.662;2022-12-16T08:25:17;41.90;;;14.82;;
56911;SDS011;42800;53.928;27.662;2022-12-16T08:28:02;36.95;;;13.95;;
56911;SDS011;42800;53.928;27.662;2022-12-16T08:30:48;39.47;;;13.63;;
56911;SDS011;42800;53.928;27.662;2022-12-16T08:33:32;46.35;;;15.10;;
56911;SDS011;42800;53.928;27.662;2022-12-16T08:36:17;45.92;;;15.20;;
56911;SDS011;42800;53.928;27.662;2022-12-16T08:41:46;46.78;;;15.75;;
56911;SDS011;42800;53.928;27.662;2022-12-16T08:44:31;46.55;;;14.75;;
56911;SDS011;42800;53.928;27.662;2022-12-16T08:47:15;44.33;;;15.48;;
56911;SDS011;42800;53.928;27.662;2022-12-16T08:49:59;52.17;;;17.05;;
56911;SDS011;42800;53.928;27.662;2022-12-16T08:55:27;55.85;;;18.95;;
56911;SDS011;42800;53.928;27.662;2022-12-16T09:00:59;51.17;;;17.55;;
56911;SDS011;42800;53.928;27.662;2022-12-16T09:03:43;50.92;;;18.02;;
56911;SDS011;42800;53.928;27.662;2022-12-16T09:09:12;47.30;;;17.42;;
56911;SDS011;42800;53.928;27.662;2022-12-16T09:14:43;46.97;;;15.07;;
56911;SDS011;42800;53.928;27.662;2022-12-16T09:17:28;62.35;;;18.98;;
56911;SDS011;42800;53.928;27.662;2022-12-16T09:20:12;47.85;;;19.58;;
56911;SDS011;42800;53.928;27.662;2022-12-16T09:25:44;46.92;;;15.43;;
56911;SDS011;42800;53.928;27.662;2022-12-16T09:28:28;53.30;;;18.23;;
56911;SDS011;42800;53.928;27.662;2022-12-16T09:31:12;36.10;;;15.10;;
56911;SDS011;42800;53.928;27.662;2022-12-16T09:33:57;55.30;;;17.85;;
56911;SDS011;42800;53.928;27.662;2022-12-16T09:36:41;47.97;;;17.00;;
56911;SDS011;42800;53.928;27.662;2022-12-16T09:42:12;42.63;;;13.77;;
56911;SDS011;42800;53.928;27.662;2022-12-16T09:45:06;38.92;;;14.45;;
56911;SDS011;42800;53.928;27.662;2022-12-16T09:48:02;32.53;;;12.23;;
56911;SDS011;42800;53.928;27.662;2022-12-16T09:50:54;40.90;;;15.75;;
56911;SDS011;42800;53.928;27.662;2022-12-16T09:53:41;38.67;;;15.52;;
56911;SDS011;42800;53.928;27.662;2022-12-16T09:56:29;38.28;;;13.75;;
56911;SDS011;42800;53.928;27.662;2022-12-16T09:59:16;42.83;;;14.88;;
56911;SDS011;42800;53.928;27.662;2022-12-16T10:02:09;36.50;;;13.00;;
56911;SDS011;42800;53.928;27.662;2022-12-16T10:05:08;36.38;;;14.88;;
56911;SDS011;42800;53.928;27.662;2022-12-16T10:07:55;35.38;;;14.57;;
56911;SDS011;42800;53.928;27.662;2022-12-16T10:10:47;41.72;;;11.68;;
56911;SDS011;42800;53.928;27.662;2022-12-16T10:13:39;36.58;;;12.60;;
56911;SDS011;42800;53.928;27.662;2022-12-16T10:16:31;32.17;;;12.57;;
56911;SDS011;42800;53.928;27.662;2022-12-16T10:19:26;31.60;;;12.32;;
56911;SDS011;42800;53.928;27.662;2022-12-16T10:22:23;41.42;;;16.73;;
56911;SDS011;42800;53.928;27.662;2022-12-16T10:25:16;42.55;;;14.27;;
56911;SDS011;42800;53.928;27.662;2022-12-16T10:28:05;47.00;;;16.38;;
56911;SDS011;42800;53.928;27.662;2022-12-16T10:30:59;35.35;;;13.45;;
56911;SDS011;42800;53.928;27.662;2022-12-16T10:33:44;38.95;;;13.25;;
56911;SDS011;42800;53.928;27.662;2022-12-16T10:36:34;32.42;;;10.63;;
56911;SDS011;42800;53.928;27.662;2022-12-16T10:39:23;35.45;;;14.10;;
56911;SDS011;42800;53.928;27.662;2022-12-16T10:42:13;29.33;;;11.65;;
56911;SDS011;42800;53.928;27.662;2022-12-16T10:45:04;35.88;;;14.90;;
56911;SDS011;42800;53.928;27.662;2022-12-16T10:47:56;34.35;;;13.00;;
56911;SDS011;42800;53.928;27.662;2022-12-16T10:50:39;26.40;;;12.23;;
56911;SDS011;42800;53.928;27.662;2022-12-16T10:53:24;30.25;;;10.93;;
56911;SDS011;42800;53.928;27.662;2022-12-16T10:56:16;37.28;;;13.50;;
56911;SDS011;42800;53.928;27.662;2022-12-16T10:59:23;36.00;;;12.52;;
56911;SDS011;42800;53.928;27.662;2022-12-16T11:02:18;30.73;;;10.75;;
56911;SDS011;42800;53.928;27.662;2022-12-16T11:05:21;35.38;;;12.57;;
56911;SDS011;42800;53.928;27.662;2022-12-16T11:08:20;39.30;;;12.68;;
56911;SDS011;42800;53.928;27.662;2022-12-16T11:11:11;42.33;;;15.18;;
56911;SDS011;42800;53.928;27.662;2022-12-16T11:14:09;32.47;;;13.23;;
56911;SDS011;42800;53.928;27.662;2022-12-16T11:20:06;42.40;;;13.52;;
56911;SDS011;42800;53.928;27.662;2022-12-16T11:26:06;42.38;;;14.20;;
56911;SDS011;42800;53.928;27.662;2022-12-16T11:29:03;36.90;;;13.38;;
56911;SDS011;42800;53.928;27.662;2022-12-16T11:31:52;33.95;;;12.65;;
56911;SDS011;42800;53.928;27.662;2022-12-16T11:34:41;48.50;;;18.83;;
56911;SDS011;42800;53.928;27.662;2022-12-16T11:37:29;32.00;;;12.10;;
56911;SDS011;42800;53.928;27.662;2022-12-16T11:40:15;35.75;;;14.35;;
56911;SDS011;42800;53.928;27.662;2022-12-16T11:43:01;26.45;;;11.90;;
56911;SDS011;42800;53.928;27.662;2022-12-16T11:45:47;68.05;;;28.77;;
56911;SDS011;42800;53.928;27.662;2022-12-16T11:48:35;38.45;;;14.52;;
56911;SDS011;42800;53.928;27.662;2022-12-16T11:51:24;30.15;;;12.43;;
56911;SDS011;42800;53.928;27.662;2022-12-16T11:54:14;42.05;;;15.15;;
56911;SDS011;42800;53.928;27.662;2022-12-16T11:57:03;35.83;;;12.63;;
56911;SDS011;42800;53.928;27.662;2022-12-16T11:59:59;38.97;;;15.85;;
56911;SDS011;42800;53.928;27.662;2022-12-16T12:02:47;32.92;;;14.25;;
56911;SDS011;42800;53.928;27.662;2022-12-16T12:05:38;35.15;;;13.00;;
56911;SDS011;42800;53.928;27.662;2022-12-16T12:08:29;35.53;;;13.13;;
56911;SDS011;42800;53.928;27.662;2022-12-16T12:11:23;38.28;;;13.90;;
56911;SDS011;42800;53.928;27.662;2022-12-16T12:14:15;36.30;;;11.63;;
56911;SDS011;42800;53.928;27.662;2022-12-16T12:17:14;37.55;;;11.98;;
56911;SDS011;42800;53.928;27.662;2022-12-16T12:20:16;38.85;;;15.52;;
56911;SDS011;42800;53.928;27.662;2022-12-16T12:23:19;34.97;;;11.38;;
56911;SDS011;42800;53.928;27.662;2022-12-16T12:26:14;32.58;;;13.13;;
56911;SDS011;42800;53.928;27.662;2022-12-16T12:29:08;41.03;;;14.18;;
56911;SDS011;42800;53.928;27.662;2022-12-16T12:32:05;40.47;;;15.02;;
56911;SDS011;42800;53.928;27.662;2022-12-16T12:35:00;25.77;;;8.55;;
56911;SDS011;42800;53.928;27.662;2022-12-16T12:38:06;34.22;;;13.88;;
56911;SDS011;42800;53.928;27.662;2022-12-16T12:40:58;37.10;;;13.70;;
56911;SDS011;42800;53.928;27.662;2022-12-16T12:43:49;36.60;;;14.05;;
56911;SDS011;42800;53.928;27.662;2022-12-16T12:46:43;33.17;;;13.23;;
56911;SDS011;42800;53.928;27.662;2022-12-16T12:49:33;37.08;;;13.18;;
56911;SDS011;42800;53.928;27.662;2022-12-16T12:52:27;31.48;;;12.02;;
56911;SDS011;42800;53.928;27.662;2022-12-16T12:55:28;31.17;;;12.90;;
56911;SDS011;42800;53.928;27.662;2022-12-16T12:58:19;35.42;;;14.25;;
56911;SDS011;42800;53.928;27.662;2022-12-16T13:01:04;34.83;;;12.80;;
56911;SDS011;42800;53.928;27.662;2022-12-16T13:03:53;43.53;;;13.93;;
56911;SDS011;42800;53.928;27.662;2022-12-16T13:06:43;34.67;;;12.98;;
56911;SDS011;42800;53.928;27.662;2022-12-16T13:09:29;37.80;;;15.77;;
56911;SDS011;42800;53.928;27.662;2022-12-16T13:12:19;37.70;;;15.05;;
56911;SDS011;42800;53.928;27.662;2022-12-16T13:15:09;34.85;;;13.88;;
56911;SDS011;42800;53.928;27.662;2022-12-16T13:18:19;38.90;;;14.43;;
56911;SDS011;42800;53.928;27.662;2022-12-16T13:24:39;36.63;;;14.77;;
56911;SDS011;42800;53.928;27.662;2022-12-16T13:27:28;42.47;;;15.75;;
56911;SDS011;42800;53.928;27.662;2022-12-16T13:30:32;37.60;;;16.20;;
56911;SDS011;42800;53.928;27.662;2022-12-16T13:33:21;44.15;;;16.15;;
56911;SDS011;42800;53.928;27.662;2022-12-16T13:36:09;35.58;;;14.25;;
56911;SDS011;42800;53.928;27.662;2022-12-16T13:38:55;36.30;;;14.80;;
56911;SDS011;42800;53.928;27.662;2022-12-16T13:42:01;30.52;;;12.60;;
56911;SDS011;42800;53.928;27.662;2022-12-16T13:47:58;39.28;;;12.77;;
56911;SDS011;42800;53.928;27.662;2022-12-16T13:50:58;38.15;;;14.27;;
56911;SDS011;42800;53.928;27.662;2022-12-16T13:53:46;36.67;;;13.77;;
56911;SDS011;42800;53.928;27.662;2022-12-16T13:56:36;34.78;;;13.95;;
56911;SDS011;42800;53.928;27.662;2022-12-16T13:59:27;39.47;;;14.35;;
56911;SDS011;42800;53.928;27.662;2022-12-16T14:02:16;41.60;;;14.13;;
56911;SDS011;42800;53.928;27.662;2022-12-16T14:05:15;33.88;;;14.60;;
56911;SDS011;42800;53.928;27.662;2022-12-16T14:08:04;38.00;;;15.50;;
56911;SDS011;42800;53.928;27.662;2022-12-16T14:10:53;33.70;;;13.00;;
56911;SDS011;42800;53.928;27.662;2022-12-16T14:13:42;29.42;;;12.57;;
56911;SDS011;42800;53.928;27.662;2022-12-16T14:16:34;35.22;;;13.85;;
56911;SDS011;42800;53.928;27.662;2022-12-16T14:19:26;34.83;;;13.23;;
56911;SDS011;42800;53.928;27.662;2022-12-16T14:22:23;45.05;;;15.02;;
56911;SDS011;42800;53.928;27.662;2022-12-16T14:25:16;31.98;;;12.93;;
56911;SDS011;42800;53.928;27.662;2022-12-16T14:28:06;36.70;;;13.88;;
56911;SDS011;42800;53.928;27.662;2022-12-16T14:31:02;36.65;;;13.25;;
56911;SDS011;42800;53.928;27.662;2022-12-16T14:33:50;28.52;;;13.43;;
56911;SDS011;42800;53.928;27.662;2022-12-16T14:36:37;42.50;;;14.25;;
56911;SDS011;42800;53.928;27.662;2022-12-16T14:39:25;39.13;;;16.55;;
56911;SDS011;42800;53.928;27.662;2022-12-16T14:42:16;33.20;;;12.48;;
56911;SDS011;42800;53.928;27.662;2022-12-16T14:45:02;48.05;;;16.75;;
56911;SDS011;42800;53.928;27.662;2022-12-16T14:47:47;40.17;;;17.05;;
56911;SDS011;42800;53.928;27.662;2022-12-16T14:50:43;38.47;;;15.90;;
56911;SDS011;42800;53.928;27.662;2022-12-16T14:53:29;41.30;;;15.48;;
56911;SDS011;42800;53.928;27.662;2022-12-16T14:56:15;43.13;;;16.08;;
56911;SDS011;42800;53.928;27.662;2022-12-16T14:59:07;40.53;;;14.60;;
56911;SDS011;42800;53.928;27.662;2022-12-16T15:01:55;30.10;;;12.45;;
56911;SDS011;42800;53.928;27.662;2022-12-16T15:04:42;35.95;;;15.25;;
56911;SDS011;42800;53.928;27.662;2022-12-16T15:07:27;42.35;;;15.05;;
56911;SDS011;42800;53.928;27.662;2022-12-16T15:10:17;44.47;;;15.73;;
56911;SDS011;42800;53.928;27.662;2022-12-16T15:13:03;44.85;;;16.80;;
56911;SDS011;42800;53.928;27.662;2022-12-16T15:15:48;39.80;;;13.75;;
56911;SDS011;42800;53.928;27.662;2022-12-16T15:18:45;50.97;;;17.23;;
56911;SDS011;42800;53.928;27.662;2022-12-16T15:21:33;31.00;;;11.40;;
56911;SDS011;42800;53.928;27.662;2022-12-16T15:24:18;45.75;;;15.07;;
56911;SDS011;42800;53.928;27.662;2022-12-16T15:27:11;40.45;;;15.18;;
56911;SDS011;42800;53.928;27.662;2022-12-16T15:29:57;38.00;;;14.70;;
56911;SDS011;42800;53.928;27.662;2022-12-16T15:35:35;41.65;;;14.32;;
56911;SDS011;42800;53.928;27.662;2022-12-16T15:38:22;46.92;;;15.77;;
56911;SDS011;42800;53.928;27.662;2022-12-16T15:41:19;44.95;;;17.30;;
56911;SDS011;42800;53.928;27.662;2022-12-16T15:44:12;37.97;;;14.55;;
56911;SDS011;42800;53.928;27.662;2022-12-16T15:46:58;63.78;;;16.38;;
56911;SDS011;42800;53.928;27.662;2022-12-16T15:52:32;42.38;;;14.32;;
56911;SDS011;42800;53.928;27.662;2022-12-16T15:55:32;34.38;;;13.30;;
56911;SDS011;42800;53.928;27.662;2022-12-16T15:58:20;39.13;;;15.65;;
56911;SDS011;42800;53.928;27.662;2022-12-16T16:01:07;41.00;;;15.65;;
56911;SDS011;42800;53.928;27.662;2022-12-16T16:03:54;44.28;;;16.80;;
56911;SDS011;42800;53.928;27.662;2022-12-16T16:06:41;34.53;;;13.82;;
56911;SDS011;42800;53.928;27.662;2022-12-16T16:09:29;36.08;;;13.77;;
56911;SDS011;42800;53.928;27.662;2022-12-16T16:12:15;42.90;;;15.45;;
56911;SDS011;42800;53.928;27.662;2022-12-16T16:15:00;37.25;;;14.80;;
56911;SDS011;42800;53.928;27.662;2022-12-16T16:17:44;49.70;;;17.33;;
56911;SDS011;42800;53.928;27.662;2022-12-16T16:20:29;39.00;;;14.75;;
56911;SDS011;42800;53.928;27.662;2022-12-16T16:23:14;37.42;;;13.82;;
56911;SDS011;42800;53.928;27.662;2022-12-16T16:25:58;38.63;;;14.40;;
56911;SDS011;42800;53.928;27.662;2022-12-16T16:28:43;36.83;;;14.38;;
56911;SDS011;42800;53.928;27.662;2022-12-16T16:31:27;38.58;;;14.63;;
56911;SDS011;42800;53.928;27.662;2022-12-16T16:36:56;35.40;;;12.85;;
56911;SDS011;42800;53.928;27.662;2022-12-16T16:39:42;32.63;;;12.23;;
56911;SDS011;42800;53.928;27.662;2022-12-16T16:42:27;35.40;;;14.00;;
56911;SDS011;42800;53.928;27.662;2022-12-16T16:45:26;28.88;;;11.40;;
56911;SDS011;42800;53.928;27.662;2022-12-16T16:48:12;32.92;;;13.07;;
56911;SDS011;42800;53.928;27.662;2022-12-16T16:50:58;39.72;;;13.25;;
56911;SDS011;42800;53.928;27.662;2022-12-16T16:53:45;39.00;;;14.82;;
56911;SDS011;42800;53.928;27.662;2022-12-16T16:59:15;36.10;;;13.20;;
56911;SDS011;42800;53.928;27.662;2022-12-16T17:02:00;23.15;;;11.05;;
56911;SDS011;42800;53.928;27.662;2022-12-16T17:07:28;40.72;;;14.02;;
56911;SDS011;42800;53.928;27.662;2022-12-16T17:10:13;32.85;;;13.13;;
56911;SDS011;42800;53.928;27.662;2022-12-16T17:15:42;34.53;;;13.55;;
56911;SDS011;42800;53.928;27.662;2022-12-16T17:18:27;33.67;;;11.43;;
56911;SDS011;42800;53.928;27.662;2022-12-16T17:23:55;41.38;;;16.15;;
56911;SDS011;42800;53.928;27.662;2022-12-16T17:29:25;37.42;;;14.40;;